Terminal Aerodrome Forecast
Issued by NWS

Home | Current Version | Previous Version | Text Only | Print | Product List | Glossary On
Versions: 1 2 3 4 5 6 7 8 9 10 11 12 13 14 15 16
000
FTUS44 KLIX 261720
TAFHDC
TAF
KHDC 261720Z 2618/2718 18010KT P6SM SKC
     FM270200 16007KT P6SM SCT250
     FM270800 VRB03KT P6SM BKN015
      TEMPO 2710/2713 BKN008
     FM271400 18005KT P6SM SCT010 BKN025=

USA.gov is the U.S. government's official web portal to all federal, state and local government web resources and services.